Bavaria, Kansas
Current Conditions -  °F | °C
As of 11:53 PM on Friday 31 Oct 2014 (Local Time) from KSLN Reporting Station
Clear Clear  
Wind Chill: -4°   Ceiling: Unl
Heat Index: -1°   Visibility: 10mi
Dew Point: -8°   Wind: 5mph
Humidity: 61%   Direction: 150°SSE
Pressure: 30.44"   Gusts: NA
Location:  38.8424°N, 97.6193°W
Report Text: KSLN 010453Z AUTO 15004KT 10SM CLR M01/M08 A3044 RMK AO2 SLP317 T10111078
Loading
Personal Weather Stations






























Interactive Weather Map
Tropical Storm Tracking
New forecast layout! Learn more

10-Day Weather Forecast

Advertisements
Track Severe Weather on mobile